createdAt,value
2019-03-06T00:00:55.102Z,26.80
2019-03-06T00:03:03.041Z,30.70
2019-03-06T00:05:11.093Z,28.00
2019-03-06T00:07:20.745Z,17.70
2019-03-06T00:09:28.247Z,31.45
2019-03-06T00:11:35.783Z,33.88
2019-03-06T00:13:43.351Z,29.00
2019-03-06T00:15:50.989Z,32.90
2019-03-06T00:17:58.665Z,32.17
2019-03-06T00:20:09.028Z,28.45
2019-03-06T00:22:16.899Z,25.45
2019-03-06T00:24:24.574Z,32.65
2019-03-06T00:26:32.144Z,20.08
2019-03-06T00:28:41.359Z,27.37
2019-03-06T00:30:49.070Z,25.00
2019-03-06T00:32:56.982Z,30.88
2019-03-06T00:35:06.940Z,24.52
2019-03-06T00:37:14.515Z,22.75
2019-03-06T00:39:23.898Z,33.00
2019-03-06T00:41:33.150Z,27.22
2019-03-06T00:43:40.765Z,33.20
2019-03-06T00:45:48.408Z,32.50
2019-03-06T00:47:56.033Z,27.85
2019-03-06T00:50:04.673Z,33.18
2019-03-06T00:52:12.350Z,27.30
2019-03-06T00:54:20.038Z,31.40
2019-03-06T00:56:27.632Z,32.63
2019-03-06T00:58:35.276Z,27.85
2019-03-06T01:00:43.110Z,33.80
2019-03-06T01:02:52.095Z,22.25
2019-03-06T01:05:00.676Z,34.65
2019-03-06T01:07:08.230Z,16.65
2019-03-06T01:09:17.058Z,31.57
2019-03-06T01:11:24.730Z,16.55
2019-03-06T01:13:32.357Z,23.30
2019-03-06T01:15:41.245Z,24.10
2019-03-06T01:17:48.786Z,23.92
2019-03-06T01:19:56.425Z,29.95
2019-03-06T01:22:04.091Z,21.07
2019-03-06T01:24:11.875Z,34.08
2019-03-06T01:26:19.495Z,31.68
2019-03-06T01:28:27.093Z,28.05
2019-03-06T01:30:34.689Z,22.30
2019-03-06T01:32:42.656Z,23.40
2019-03-06T01:35:07.910Z,21.48
2019-03-06T01:37:18.224Z,25.32
2019-03-06T01:39:30.467Z,23.20
2019-03-06T01:41:56.341Z,22.17
2019-03-06T01:44:05.574Z,27.62
2019-03-06T01:46:13.264Z,26.23
2019-03-06T01:48:20.865Z,20.90
2019-03-06T01:50:28.470Z,19.87
2019-03-06T01:52:36.264Z,17.90
2019-03-06T01:54:43.860Z,25.17
2019-03-06T01:56:51.452Z,29.95
2019-03-06T01:58:59.076Z,29.65
2019-03-06T02:01:06.673Z,21.82
2019-03-06T02:03:14.508Z,18.17
2019-03-06T02:05:22.282Z,29.92
2019-03-06T02:07:29.896Z,23.05
2019-03-06T02:09:39.083Z,25.92
2019-03-06T02:11:46.553Z,21.42
2019-03-06T02:13:54.151Z,35.58
2019-03-06T02:16:01.886Z,25.95
2019-03-06T02:18:09.509Z,28.27
2019-03-06T02:20:19.180Z,33.98
2019-03-06T02:22:26.751Z,31.55
2019-03-06T02:24:34.274Z,34.98
2019-03-06T02:26:42.078Z,26.93
2019-03-06T02:28:49.673Z,33.20
2019-03-06T02:30:57.303Z,17.00
2019-03-06T02:33:05.139Z,29.90
2019-03-06T02:35:12.961Z,33.38
2019-03-06T02:37:20.748Z,29.42
2019-03-06T02:39:28.486Z,24.18
2019-03-06T02:41:36.169Z,20.32
2019-03-06T02:43:43.863Z,29.98
2019-03-06T02:45:51.571Z,21.95
2019-03-06T02:47:59.163Z,27.50
2019-03-06T02:50:10.975Z,31.80
2019-03-06T02:52:18.748Z,26.82
2019-03-06T02:54:26.312Z,33.13
2019-03-06T02:56:33.937Z,19.48
2019-03-06T02:58:44.295Z,22.82
2019-03-06T03:00:56.444Z,17.70
2019-03-06T03:03:19.181Z,28.23
2019-03-06T03:05:28.690Z,26.50
2019-03-06T03:07:36.356Z,22.15
2019-03-06T03:09:45.011Z,22.90
2019-03-06T03:11:54.349Z,27.85
2019-03-06T03:14:01.948Z,29.42
2019-03-06T03:16:09.641Z,24.92
2019-03-06T03:18:17.651Z,30.88
2019-03-06T03:20:26.734Z,20.35
2019-03-06T03:22:34.489Z,18.67
2019-03-06T03:24:42.243Z,32.08
2019-03-06T03:26:49.971Z,28.45
2019-03-06T03:28:57.512Z,25.30
2019-03-06T03:31:05.122Z,20.40
2019-03-06T03:33:12.723Z,29.63
2019-03-06T03:35:20.532Z,32.05
2019-03-06T03:37:28.134Z,21.82
2019-03-06T03:39:35.730Z,30.55
2019-03-06T03:41:43.363Z,17.50
2019-03-06T03:43:51.095Z,18.62
2019-03-06T03:45:58.701Z,30.35
2019-03-06T03:48:08.518Z,31.87
2019-03-06T03:50:16.089Z,34.20
2019-03-06T03:52:23.781Z,31.30
2019-03-06T03:54:31.409Z,33.90
2019-03-06T03:56:39.108Z,22.73
2019-03-06T03:58:46.776Z,34.65
2019-03-06T04:00:54.467Z,15.98
2019-03-06T04:03:02.466Z,35.15
2019-03-06T04:05:11.774Z,32.05
2019-03-06T04:07:19.297Z,23.57
2019-03-06T04:09:26.797Z,30.65
2019-03-06T04:11:35.601Z,32.73
2019-03-06T04:13:43.128Z,29.90
2019-03-06T04:15:51.689Z,32.73
2019-03-06T04:17:59.553Z,38.60
2019-03-06T04:20:12.113Z,33.35
2019-03-06T04:22:19.706Z,20.65
2019-03-06T04:24:27.781Z,33.50
2019-03-06T04:26:35.369Z,23.20
2019-03-06T04:28:42.937Z,28.98
2019-03-06T04:30:52.561Z,27.67
2019-03-06T04:33:00.368Z,32.53
2019-03-06T04:35:08.460Z,17.73
2019-03-06T04:37:16.029Z,39.08
2019-03-06T04:39:23.623Z,35.17
2019-03-06T04:41:31.187Z,22.93
2019-03-06T04:43:38.792Z,34.38
2019-03-06T04:45:47.481Z,34.88
2019-03-06T04:47:55.198Z,24.90
2019-03-06T04:50:02.898Z,20.15
2019-03-06T04:52:10.397Z,15.20
2019-03-06T04:54:17.975Z,31.75
2019-03-06T04:56:25.805Z,25.40
2019-03-06T04:58:33.415Z,11.80
2019-03-06T05:00:41.115Z,15.05
2019-03-06T05:02:48.591Z,29.07
2019-03-06T05:04:56.260Z,25.65
2019-03-06T05:07:04.007Z,21.25
2019-03-06T05:09:11.572Z,34.83
2019-03-06T05:11:19.174Z,27.85
2019-03-06T05:13:27.493Z,27.73
2019-03-06T05:15:35.077Z,31.55
2019-03-06T05:17:45.455Z,22.48
2019-03-06T05:19:53.189Z,28.75
2019-03-06T05:22:00.820Z,32.93
2019-03-06T05:24:08.320Z,32.00
2019-03-06T05:26:16.247Z,41.73
2019-03-06T05:28:25.184Z,40.98
2019-03-06T05:30:32.777Z,21.45
2019-03-06T05:32:40.449Z,26.70
2019-03-06T05:34:47.921Z,32.93
2019-03-06T05:37:05.798Z,41.10
2019-03-06T05:39:13.440Z,25.37
2019-03-06T05:41:21.243Z,17.80
2019-03-06T05:43:28.947Z,28.32
2019-03-06T05:45:37.595Z,18.50
2019-03-06T05:47:46.704Z,25.05
2019-03-06T05:49:54.484Z,17.45
2019-03-06T05:52:02.049Z,32.35
2019-03-06T05:54:09.620Z,27.75
2019-03-06T05:56:17.394Z,24.47
2019-03-06T05:58:24.936Z,38.17
2019-03-06T06:00:32.503Z,28.32
2019-03-06T06:02:40.102Z,25.82
2019-03-06T06:04:47.672Z,24.92
2019-03-06T06:06:56.537Z,37.55
2019-03-06T06:09:06.995Z,26.52
2019-03-06T06:11:14.727Z,17.27
2019-03-06T06:13:22.204Z,30.82
2019-03-06T06:15:30.656Z,39.70
2019-03-06T06:17:38.437Z,29.18
2019-03-06T06:19:45.973Z,36.55
2019-03-06T06:22:07.140Z,36.17
2019-03-06T06:24:14.711Z,24.35
2019-03-06T06:26:22.447Z,22.30
2019-03-06T06:28:29.966Z,31.33
2019-03-06T06:30:37.940Z,25.72
2019-03-06T06:32:47.265Z,25.57
2019-03-06T06:34:55.911Z,28.27
2019-03-06T06:37:03.608Z,32.50
2019-03-06T06:39:11.175Z,21.15
2019-03-06T06:41:18.768Z,16.70
2019-03-06T06:43:26.406Z,28.40
2019-03-06T06:45:34.078Z,23.18
2019-03-06T06:48:13.562Z,23.30
2019-03-06T06:50:21.235Z,16.87
2019-03-06T06:52:54.480Z,21.20
2019-03-06T06:55:25.220Z,28.05
2019-03-06T06:58:13.760Z,24.95
2019-03-06T07:01:02.457Z,23.98
2019-03-06T07:03:18.839Z,24.40
2019-03-06T07:05:34.346Z,27.67
2019-03-06T07:07:43.968Z,19.30
2019-03-06T07:09:54.045Z,29.12
2019-03-06T07:12:09.004Z,37.95
2019-03-06T07:14:34.548Z,20.12
2019-03-06T07:16:59.267Z,20.80
2019-03-06T07:19:17.675Z,35.63
2019-03-06T07:21:35.626Z,27.98
2019-03-06T07:23:47.819Z,34.73
2019-03-06T07:25:58.057Z,30.23
2019-03-06T07:28:19.493Z,29.35
2019-03-06T07:30:41.119Z,30.12
2019-03-06T07:33:08.602Z,34.50
2019-03-06T07:35:58.421Z,21.93
2019-03-06T07:38:07.704Z,35.55
2019-03-06T07:40:16.624Z,31.55
2019-03-06T07:42:25.830Z,35.63
2019-03-06T07:44:42.256Z,31.87
2019-03-06T07:46:57.226Z,34.80
2019-03-06T07:49:16.505Z,31.95
2019-03-06T07:51:37.702Z,29.98
2019-03-06T07:53:55.929Z,33.85
2019-03-06T07:56:05.167Z,38.20
2019-03-06T07:58:51.161Z,41.70
2019-03-06T08:00:58.733Z,26.77
2019-03-06T08:03:07.767Z,48.95
2019-03-06T08:05:15.406Z,36.53
2019-03-06T08:07:23.113Z,49.38
2019-03-06T08:09:30.968Z,32.50
2019-03-06T08:11:43.266Z,27.77
2019-03-06T08:13:52.476Z,26.37
2019-03-06T08:16:01.889Z,23.98
2019-03-06T08:18:12.189Z,27.30
2019-03-06T08:20:37.787Z,46.95
2019-03-06T08:22:48.237Z,47.55
2019-03-06T08:25:15.755Z,26.65
2019-03-06T08:27:25.044Z,29.87
2019-03-06T08:29:32.715Z,26.57
2019-03-06T08:31:41.923Z,40.23
2019-03-06T08:33:49.573Z,22.75
2019-03-06T08:35:57.145Z,29.02
2019-03-06T08:38:04.857Z,15.23
2019-03-06T08:40:13.302Z,18.55
2019-03-06T08:42:20.905Z,29.40
2019-03-06T08:44:28.627Z,27.62
2019-03-06T08:46:53.482Z,24.27
2019-03-06T08:49:16.139Z,17.75
2019-03-06T08:51:26.452Z,21.25
2019-03-06T08:53:51.838Z,18.10
2019-03-06T08:56:02.217Z,27.55
2019-03-06T08:58:27.631Z,21.93
2019-03-06T09:00:37.135Z,17.87
2019-03-06T09:02:49.415Z,14.78
2019-03-06T09:05:01.432Z,17.95
2019-03-06T09:07:27.243Z,12.80
2019-03-06T09:09:36.621Z,14.07
2019-03-06T09:11:57.910Z,21.37
2019-03-06T09:14:09.703Z,16.32
2019-03-06T09:16:18.838Z,20.30
2019-03-06T09:18:29.075Z,21.68
2019-03-06T09:20:41.207Z,19.00
2019-03-06T09:22:54.694Z,17.40
2019-03-06T09:25:19.051Z,17.98
2019-03-06T09:27:33.894Z,23.77
2019-03-06T09:29:55.745Z,16.32
2019-03-06T09:32:07.593Z,15.53
2019-03-06T09:34:25.895Z,16.15
2019-03-06T09:36:51.293Z,18.55
2019-03-06T09:39:12.796Z,18.23
2019-03-06T09:41:28.089Z,17.23
2019-03-06T09:43:37.405Z,13.08
2019-03-06T09:45:47.651Z,16.30
2019-03-06T09:47:59.492Z,20.43
2019-03-06T09:50:18.316Z,21.50
2019-03-06T09:52:30.616Z,12.70
2019-03-06T09:54:41.054Z,18.80
2019-03-06T09:57:06.382Z,16.97
2019-03-06T09:59:17.534Z,16.32
2019-03-06T10:01:29.580Z,15.13
2019-03-06T10:03:38.808Z,9.43
2019-03-06T10:05:52.419Z,14.40
2019-03-06T10:08:13.935Z,9.13
2019-03-06T10:10:26.640Z,16.82
2019-03-06T10:12:50.996Z,11.78
2019-03-06T10:15:01.336Z,15.60
2019-03-06T10:17:14.065Z,11.57
2019-03-06T10:19:24.151Z,17.48
2019-03-06T10:21:31.886Z,16.07
2019-03-06T10:23:39.621Z,15.13
2019-03-06T10:25:47.358Z,18.10
2019-03-06T10:27:55.004Z,14.68
2019-03-06T10:30:02.658Z,12.90
2019-03-06T10:32:10.414Z,13.53
2019-03-06T10:34:17.953Z,15.08
2019-03-06T10:36:25.962Z,8.95
2019-03-06T10:38:33.692Z,12.90
2019-03-06T10:40:41.158Z,13.72
2019-03-06T10:42:48.973Z,11.43
2019-03-06T10:44:56.538Z,8.05
2019-03-06T10:47:05.412Z,12.30
2019-03-06T10:49:13.487Z,9.60
2019-03-06T10:51:21.039Z,6.83
2019-03-06T10:53:28.603Z,12.23
2019-03-06T10:55:36.395Z,5.80
2019-03-06T10:57:43.954Z,6.50
2019-03-06T10:59:51.579Z,7.87
2019-03-06T11:01:59.142Z,12.75
2019-03-06T11:04:07.338Z,8.98
2019-03-06T11:06:15.295Z,14.93
2019-03-06T11:08:25.031Z,9.05
2019-03-06T11:10:34.468Z,9.73
2019-03-06T11:12:42.513Z,9.63
2019-03-06T11:14:50.076Z,14.85
2019-03-06T11:16:57.611Z,23.07
2019-03-06T11:19:06.589Z,10.35
2019-03-06T11:21:14.760Z,12.43
2019-03-06T11:23:22.629Z,15.85
2019-03-06T11:25:31.798Z,12.70
2019-03-06T11:27:39.503Z,16.30
2019-03-06T11:29:47.889Z,10.48
2019-03-06T11:31:55.580Z,10.28
2019-03-06T11:34:03.237Z,10.45
2019-03-06T11:36:11.674Z,14.73
2019-03-06T11:38:19.748Z,12.63
2019-03-06T11:40:27.688Z,11.43
2019-03-06T11:42:35.319Z,13.22
2019-03-06T11:44:42.964Z,12.30
2019-03-06T11:46:50.606Z,11.43
2019-03-06T11:48:58.174Z,9.40
2019-03-06T11:51:06.375Z,13.13
2019-03-06T11:53:14.115Z,9.63
2019-03-06T11:55:22.093Z,10.13
2019-03-06T11:57:29.907Z,12.25
2019-03-06T11:59:37.756Z,16.30
2019-03-06T12:01:48.181Z,7.55
2019-03-06T12:03:55.555Z,13.05
2019-03-06T12:06:03.215Z,7.12
2019-03-06T12:08:16.815Z,16.15
2019-03-06T12:10:25.024Z,12.40
2019-03-06T12:12:32.585Z,12.23
2019-03-06T12:14:40.694Z,17.42
2019-03-06T12:16:51.329Z,9.68
2019-03-06T12:18:58.815Z,11.28
2019-03-06T12:21:06.612Z,13.08
2019-03-06T12:23:15.317Z,15.20
2019-03-06T12:25:22.987Z,17.25
2019-03-06T12:27:30.632Z,16.15
2019-03-06T12:29:38.273Z,16.97
2019-03-06T12:31:46.056Z,15.80
2019-03-06T12:33:53.800Z,15.75
2019-03-06T12:36:01.671Z,15.20
2019-03-06T12:38:10.841Z,21.35
2019-03-06T12:40:24.588Z,14.60
2019-03-06T12:42:32.338Z,16.20
2019-03-06T12:44:39.915Z,19.90
2019-03-06T12:46:47.834Z,17.82
2019-03-06T12:48:58.599Z,17.57
2019-03-06T12:51:06.516Z,13.95
2019-03-06T12:53:14.098Z,13.95
2019-03-06T12:55:21.815Z,15.08
2019-03-06T12:57:29.565Z,13.78
2019-03-06T12:59:37.140Z,12.73
2019-03-06T13:01:44.893Z,13.32
2019-03-06T13:03:52.572Z,12.95
2019-03-06T13:06:00.395Z,12.50
2019-03-06T13:08:08.158Z,14.40
2019-03-06T13:10:19.414Z,14.40
2019-03-06T13:12:29.138Z,18.27
2019-03-06T13:14:36.186Z,15.38
2019-03-06T13:16:43.788Z,16.87
2019-03-06T13:18:51.381Z,16.67
2019-03-06T13:21:00.777Z,16.80
2019-03-06T13:23:09.165Z,14.18
2019-03-06T13:25:20.927Z,15.00
2019-03-06T13:27:28.579Z,16.10
2019-03-06T13:29:36.248Z,16.65
2019-03-06T13:31:43.949Z,16.27
2019-03-06T13:33:55.872Z,13.90
2019-03-06T13:36:05.483Z,15.18
2019-03-06T13:38:13.045Z,14.25
2019-03-06T13:40:20.999Z,17.50
2019-03-06T13:42:28.613Z,13.58
2019-03-06T13:44:36.301Z,12.47
2019-03-06T13:46:43.921Z,12.75
2019-03-06T13:48:51.721Z,14.65
2019-03-06T13:50:59.395Z,13.28
2019-03-06T13:53:07.290Z,14.75
2019-03-06T13:55:17.414Z,16.60
2019-03-06T13:57:25.197Z,13.38
2019-03-06T13:59:32.789Z,15.78
2019-03-06T14:01:40.299Z,12.88
2019-03-06T14:03:48.082Z,12.70
2019-03-06T14:05:56.602Z,13.38
2019-03-06T14:08:04.490Z,15.20
2019-03-06T14:10:19.169Z,18.17
2019-03-06T14:12:26.812Z,14.33
2019-03-06T14:14:34.340Z,16.82
2019-03-06T14:16:42.143Z,15.70
2019-03-06T14:18:49.727Z,14.63
2019-03-06T14:20:58.979Z,14.15
2019-03-06T14:23:07.753Z,14.80
2019-03-06T14:25:17.061Z,13.40
2019-03-06T14:27:25.070Z,14.90
2019-03-06T14:29:32.819Z,21.57
2019-03-06T14:31:40.293Z,13.80
2019-03-06T14:33:47.977Z,15.00
2019-03-06T14:35:55.690Z,14.40
2019-03-06T14:38:03.412Z,16.80
2019-03-06T14:40:35.018Z,16.85
2019-03-06T14:42:42.702Z,19.42
2019-03-06T14:44:50.487Z,15.98
2019-03-06T14:46:58.613Z,17.07
2019-03-06T14:49:06.230Z,17.87
2019-03-06T14:51:14.052Z,16.23
2019-03-06T14:53:22.795Z,17.15
2019-03-06T14:55:30.441Z,19.62
2019-03-06T14:57:38.015Z,19.02
2019-03-06T14:59:45.691Z,19.00
2019-03-06T15:01:53.345Z,18.57
2019-03-06T15:04:00.959Z,20.65
2019-03-06T15:06:08.707Z,23.87
2019-03-06T15:08:16.289Z,22.93
2019-03-06T15:10:24.000Z,19.98
2019-03-06T15:12:32.647Z,24.00
2019-03-06T15:14:40.343Z,28.15
2019-03-06T15:16:48.194Z,23.90
2019-03-06T15:18:55.952Z,22.70
2019-03-06T15:21:03.757Z,21.77
2019-03-06T15:23:11.463Z,24.98
2019-03-06T15:25:26.241Z,22.82
2019-03-06T15:27:33.719Z,26.45
2019-03-06T15:29:41.303Z,24.43
2019-03-06T15:31:49.071Z,23.20
2019-03-06T15:33:56.728Z,27.48
2019-03-06T15:36:04.295Z,23.85
2019-03-06T15:38:12.154Z,23.38
2019-03-06T15:40:29.139Z,23.65
2019-03-06T15:42:36.777Z,24.80
2019-03-06T15:44:44.443Z,25.88
2019-03-06T15:46:52.095Z,28.90
2019-03-06T15:48:59.577Z,23.75
2019-03-06T15:51:07.227Z,23.77
2019-03-06T15:53:24.152Z,27.17
2019-03-06T15:55:27.917Z,27.05
2019-03-06T15:57:35.752Z,31.05
2019-03-06T15:59:43.601Z,39.65
2019-03-06T16:01:51.410Z,52.75
2019-03-06T16:03:59.006Z,43.48
2019-03-06T16:06:06.946Z,40.92
2019-03-06T16:08:15.336Z,107.37
2019-03-06T16:10:23.384Z,142.18
2019-03-06T16:12:30.864Z,95.42
2019-03-06T16:14:38.580Z,110.48
2019-03-06T16:16:46.317Z,84.97
2019-03-06T16:18:53.909Z,102.85
2019-03-06T16:21:01.590Z,127.22
2019-03-06T16:23:09.343Z,149.02
2019-03-06T16:25:17.605Z,246.35
2019-03-06T16:27:25.524Z,263.85
2019-03-06T16:29:33.217Z,252.55
2019-03-06T16:31:40.784Z,234.03
2019-03-06T16:33:48.473Z,197.43
2019-03-06T16:35:56.329Z,126.22
2019-03-06T16:38:04.079Z,123.47
2019-03-06T16:40:21.570Z,130.12
2019-03-06T16:42:29.433Z,355.30
2019-03-06T16:44:38.537Z,257.20
2019-03-06T16:46:46.119Z,176.95
2019-03-06T16:48:53.876Z,219.70
2019-03-06T16:51:01.703Z,287.33
2019-03-06T16:53:09.638Z,263.92
2019-03-06T16:55:21.855Z,212.50
2019-03-06T16:57:29.451Z,147.95
2019-03-06T16:59:37.284Z,219.60
2019-03-06T17:01:44.988Z,165.32
2019-03-06T17:03:52.635Z,158.00
2019-03-06T17:06:00.213Z,152.35
2019-03-06T17:08:09.162Z,125.15
2019-03-06T17:10:18.337Z,328.75
2019-03-06T17:12:25.826Z,217.62
2019-03-06T17:14:33.503Z,175.65
2019-03-06T17:16:41.083Z,269.32
2019-03-06T17:18:48.789Z,194.67
2019-03-06T17:20:56.472Z,214.15
2019-03-06T17:23:04.864Z,204.95
2019-03-06T17:25:12.772Z,188.27
2019-03-06T17:27:20.527Z,328.52
2019-03-06T17:29:28.562Z,232.50
2019-03-06T17:31:36.334Z,345.50
2019-03-06T17:33:44.049Z,128.02
2019-03-06T17:35:51.724Z,55.63
2019-03-06T17:38:00.000Z,66.35
2019-03-06T17:40:08.042Z,83.05
2019-03-06T17:42:16.049Z,91.20
2019-03-06T17:44:23.762Z,78.85
2019-03-06T17:46:31.753Z,85.60
2019-03-06T17:48:39.392Z,81.00
2019-03-06T17:50:47.203Z,87.08
2019-03-06T17:52:55.711Z,87.35
2019-03-06T17:55:03.447Z,87.00
2019-03-06T17:57:11.258Z,92.75
2019-03-06T17:59:18.940Z,90.45
2019-03-06T18:01:26.803Z,94.60
2019-03-06T18:03:41.824Z,91.75
2019-03-06T18:05:49.669Z,89.05
2019-03-06T18:07:57.314Z,103.58
2019-03-06T18:10:11.618Z,104.20
2019-03-06T18:12:19.394Z,103.72
2019-03-06T18:14:26.943Z,104.53
2019-03-06T18:16:34.593Z,124.00
2019-03-06T18:18:42.200Z,138.88
2019-03-06T18:20:50.137Z,152.15
2019-03-06T18:22:57.979Z,170.20
2019-03-06T18:25:09.731Z,147.57
2019-03-06T18:27:25.930Z,155.55
2019-03-06T18:29:26.774Z,150.80
2019-03-06T18:31:35.478Z,157.43
2019-03-06T18:33:43.226Z,149.95
2019-03-06T18:35:50.983Z,173.47
2019-03-06T18:37:58.700Z,173.35
2019-03-06T18:40:13.352Z,177.57
2019-03-06T18:42:20.906Z,194.05
2019-03-06T18:44:29.490Z,187.50
2019-03-06T18:46:37.101Z,186.47
2019-03-06T18:48:44.958Z,197.65
2019-03-06T18:50:52.551Z,183.25
2019-03-06T18:53:00.573Z,176.78
2019-03-06T18:55:11.703Z,358.75
2019-03-06T18:57:19.296Z,182.27
2019-03-06T18:59:27.074Z,176.42
2019-03-06T19:01:34.850Z,167.28
2019-03-06T19:03:44.066Z,181.30
2019-03-06T19:05:51.719Z,186.47
2019-03-06T19:07:59.604Z,181.05
2019-03-06T19:10:12.235Z,215.68
2019-03-06T19:12:20.031Z,166.88
2019-03-06T19:14:29.472Z,335.65
2019-03-06T19:16:37.002Z,181.20
2019-03-06T19:18:45.531Z,164.07
2019-03-06T19:20:53.376Z,156.00
2019-03-06T19:23:01.093Z,171.75
2019-03-06T19:25:14.403Z,158.27
2019-03-06T19:27:22.187Z,154.63
2019-03-06T19:29:29.782Z,137.85
2019-03-06T19:31:37.817Z,139.18
2019-03-06T19:33:45.437Z,145.60
2019-03-06T19:35:53.180Z,154.93
2019-03-06T19:38:00.938Z,141.25
2019-03-06T19:40:12.295Z,146.10
2019-03-06T19:42:20.162Z,140.25
2019-03-06T19:44:27.761Z,147.50
2019-03-06T19:46:35.375Z,147.32
2019-03-06T19:48:43.046Z,167.53
2019-03-06T19:50:50.868Z,178.20
2019-03-06T19:52:58.458Z,158.42
2019-03-06T19:55:08.142Z,147.60
2019-03-06T19:57:15.972Z,157.88
2019-03-06T19:59:23.623Z,158.90
2019-03-06T20:01:32.058Z,170.30
2019-03-06T20:03:39.822Z,154.85
2019-03-06T20:05:50.157Z,152.85
2019-03-06T20:07:57.909Z,162.77
2019-03-06T20:10:07.916Z,179.65
2019-03-06T20:12:15.856Z,147.95
2019-03-06T20:14:24.748Z,144.60
2019-03-06T20:16:32.333Z,136.40
2019-03-06T20:18:40.245Z,144.93
2019-03-06T20:20:47.902Z,139.55
2019-03-06T20:22:55.504Z,140.35
2019-03-06T20:25:03.555Z,142.65
2019-03-06T20:27:11.675Z,115.95
2019-03-06T20:29:19.323Z,117.10
2019-03-06T20:31:27.114Z,111.50
2019-03-06T20:33:35.628Z,182.12
2019-03-06T20:35:43.201Z,89.80
2019-03-06T20:37:51.306Z,121.90
2019-03-06T20:39:59.176Z,74.37
2019-03-06T20:42:06.902Z,97.08
2019-03-06T20:44:14.507Z,93.05
2019-03-06T20:46:22.315Z,124.30
2019-03-06T20:48:29.862Z,64.15
2019-03-06T20:50:37.461Z,87.37
2019-03-06T20:52:45.193Z,56.65
2019-03-06T20:54:53.103Z,78.67
2019-03-06T20:57:00.607Z,63.73
2019-03-06T20:59:08.523Z,69.80
2019-03-06T21:01:16.187Z,78.22
2019-03-06T21:03:23.781Z,51.13
2019-03-06T21:05:32.793Z,64.00
2019-03-06T21:07:45.300Z,58.05
2019-03-06T21:09:49.740Z,46.10
2019-03-06T21:11:57.444Z,81.80
2019-03-06T21:14:05.241Z,144.77
2019-03-06T21:16:12.864Z,68.20
2019-03-06T21:18:20.669Z,38.30
2019-03-06T21:20:28.308Z,38.13
2019-03-06T21:22:35.916Z,39.53
2019-03-06T21:24:43.506Z,42.80
2019-03-06T21:26:51.086Z,42.53
2019-03-06T21:28:58.679Z,41.90
2019-03-06T21:31:06.416Z,46.15
2019-03-06T21:33:14.340Z,61.00
2019-03-06T21:35:22.579Z,48.33
2019-03-06T21:37:30.165Z,51.85
2019-03-06T21:39:37.739Z,49.73
2019-03-06T21:41:45.447Z,61.42
2019-03-06T21:43:52.991Z,56.53
2019-03-06T21:46:01.445Z,65.70
2019-03-06T21:48:09.209Z,50.98
2019-03-06T21:50:19.457Z,51.95
2019-03-06T21:52:26.997Z,43.70
2019-03-06T21:54:34.596Z,48.13
2019-03-06T21:56:42.239Z,68.33
2019-03-06T21:58:49.845Z,49.40
2019-03-06T22:00:57.513Z,77.17
2019-03-06T22:03:05.929Z,79.55
2019-03-06T22:05:13.764Z,93.67
2019-03-06T22:07:21.502Z,213.32
2019-03-06T22:09:29.026Z,171.07
2019-03-06T22:11:36.755Z,152.78
2019-03-06T22:13:44.262Z,126.55
2019-03-06T22:15:51.917Z,98.90
2019-03-06T22:17:59.487Z,77.58
2019-03-06T22:20:10.702Z,84.10
2019-03-06T22:22:18.278Z,78.78
2019-03-06T22:24:25.758Z,62.75
2019-03-06T22:26:33.359Z,59.10
2019-03-06T22:28:40.939Z,60.85
2019-03-06T22:30:48.516Z,59.05
2019-03-06T22:32:56.306Z,64.12
2019-03-06T22:35:04.218Z,71.65
2019-03-06T22:37:12.371Z,62.25
2019-03-06T22:39:19.981Z,134.47
2019-03-06T22:41:27.746Z,86.32
2019-03-06T22:43:35.362Z,46.60
2019-03-06T22:45:43.067Z,45.17
2019-03-06T22:47:50.818Z,44.67
2019-03-06T22:49:58.383Z,44.42
2019-03-06T22:52:06.058Z,48.80
2019-03-06T22:54:13.645Z,45.90
2019-03-06T22:56:21.206Z,38.85
2019-03-06T22:58:30.101Z,48.17
2019-03-06T23:00:46.644Z,42.20
2019-03-06T23:02:55.994Z,56.73
2019-03-06T23:05:05.783Z,50.38
2019-03-06T23:07:13.252Z,59.67
2019-03-06T23:09:21.379Z,54.33
2019-03-06T23:11:29.144Z,56.13
2019-03-06T23:13:36.616Z,64.25
2019-03-06T23:15:44.152Z,71.00
2019-03-06T23:17:51.750Z,53.73
2019-03-06T23:19:59.290Z,54.50
2019-03-06T23:22:08.230Z,57.80
2019-03-06T23:24:15.837Z,50.75
2019-03-06T23:26:23.409Z,58.10
2019-03-06T23:28:31.154Z,56.05
2019-03-06T23:30:38.813Z,36.58
2019-03-06T23:32:46.521Z,60.73
2019-03-06T23:34:54.105Z,50.38
2019-03-06T23:37:02.024Z,39.67
2019-03-06T23:39:12.564Z,39.00
2019-03-06T23:41:20.144Z,40.08
2019-03-06T23:43:27.741Z,45.28
2019-03-06T23:45:35.401Z,45.48
2019-03-06T23:47:42.949Z,38.33
2019-03-06T23:49:50.646Z,44.73
2019-03-06T23:51:59.177Z,34.98
2019-03-06T23:54:06.795Z,36.45
2019-03-06T23:56:14.315Z,35.80
2019-03-06T23:58:21.937Z,99.50
